Time;durP1;ratioP1;P1;durP2;ratioP2;P2;SDS_P1;SDS_P2;PMS_P1;PMS_P2;Temp;Humidity;BMP_temperature;BMP_pressure;BME280_temperature;BME280_humidity;BME280_pressure;Samples;Min_cycle;Max_cycle;Signal;HPM_P1;HPM_P2
2021/09/11 00:01:03;;;;;;;1.05;0.70;;;11.50;99.90;;;;;;5009613;28;20614;-74
2021/09/11 00:03:30;;;;;;;1.20;0.60;;;11.50;99.90;;;;;;5009326;28;20105;-76
2021/09/11 00:05:55;;;;;;;2.00;0.80;;;11.50;99.90;;;;;;5010010;28;20030;-76
2021/09/11 00:08:21;;;;;;;1.10;0.93;;;11.50;99.90;;;;;;5010143;28;20051;-76
2021/09/11 00:10:47;;;;;;;2.25;0.80;;;11.40;99.90;;;;;;5008633;28;20022;-75
2021/09/11 00:13:12;;;;;;;3.38;0.70;;;11.40;99.90;;;;;;5010247;28;20504;-75
2021/09/11 00:15:38;;;;;;;1.30;0.70;;;11.40;99.90;;;;;;4998285;28;20030;-76
2021/09/11 00:18:05;;;;;;;2.95;0.80;;;11.40;99.90;;;;;;5007761;28;20026;-76
2021/09/11 00:20:32;;;;;;;0.90;0.70;;;11.40;99.90;;;;;;5009519;28;20077;-74
2021/09/11 00:22:59;;;;;;;0.88;0.80;;;11.40;99.90;;;;;;5009788;28;20421;-73
2021/09/11 00:25:25;;;;;;;0.80;0.70;;;11.40;99.90;;;;;;5082558;28;20025;-72
2021/09/11 00:27:51;;;;;;;0.95;0.85;;;11.40;99.90;;;;;;5009922;28;20389;-72
2021/09/11 00:30:17;;;;;;;1.23;0.70;;;11.30;99.90;;;;;;4995780;28;20105;-73
2021/09/11 00:32:43;;;;;;;0.77;0.77;;;11.30;99.90;;;;;;5001535;28;20432;-73
2021/09/11 00:35:15;;;;;;;1.70;0.73;;;11.30;99.90;;;;;;5003869;28;20026;-73
2021/09/11 00:37:41;;;;;;;1.42;0.73;;;11.30;99.90;;;;;;4996975;28;20034;-72
2021/09/11 00:40:09;;;;;;;1.70;0.70;;;11.40;99.90;;;;;;5009964;28;20024;-72
2021/09/11 00:42:35;;;;;;;1.30;0.63;;;11.40;99.90;;;;;;5009567;28;20026;-72
2021/09/11 00:45:01;;;;;;;2.47;0.77;;;11.40;99.90;;;;;;5009624;28;20022;-72
2021/09/11 00:47:27;;;;;;;1.58;0.88;;;11.30;99.90;;;;;;5009533;28;20056;-72
2021/09/11 00:49:53;;;;;;;3.03;0.70;;;11.30;99.90;;;;;;5009412;28;20049;-72
2021/09/11 00:52:21;;;;;;;1.35;0.93;;;11.40;99.90;;;;;;5009632;28;20135;-72
2021/09/11 00:54:47;;;;;;;1.38;0.70;;;11.40;99.90;;;;;;5009029;28;20050;-72
2021/09/11 00:57:14;;;;;;;1.13;0.73;;;11.40;99.90;;;;;;5009127;28;20130;-72
2021/09/11 00:59:40;;;;;;;1.45;0.70;;;11.30;99.90;;;;;;4995200;28;20139;-72
2021/09/11 01:02:06;;;;;;;0.68;0.52;;;11.30;99.90;;;;;;5067998;28;20024;-72
2021/09/11 01:04:31;;;;;;;0.60;0.60;;;11.30;99.90;;;;;;5094469;28;20018;-72
2021/09/11 01:06:58;;;;;;;1.65;0.70;;;11.30;99.90;;;;;;4989706;28;20389;-72
2021/09/11 01:09:24;;;;;;;1.73;0.73;;;11.20;99.90;;;;;;5025763;28;20055;-72
2021/09/11 01:11:51;;;;;;;1.08;0.70;;;11.20;99.90;;;;;;5045088;28;20081;-72
2021/09/11 01:14:17;;;;;;;2.45;0.90;;;11.20;99.90;;;;;;5006054;28;20070;-72
2021/09/11 01:46:06;;;;;;;1.30;0.60;;;11.30;99.90;;;;;;5008634;28;20066;-72
2021/09/11 01:48:31;;;;;;;1.67;0.65;;;11.20;99.90;;;;;;5008318;28;20050;-73
2021/09/11 01:50:57;;;;;;;1.25;0.80;;;11.20;99.90;;;;;;5008455;28;20049;-73
2021/09/11 01:53:23;;;;;;;2.42;1.35;;;11.10;99.90;;;;;;5008083;28;20542;-73
2021/09/11 01:55:49;;;;;;;2.10;0.80;;;11.10;99.90;;;;;;5008320;28;20543;-73
2021/09/11 01:58:15;;;;;;;2.70;0.90;;;11.10;99.90;;;;;;5008316;28;20108;-72
2021/09/11 02:00:41;;;;;;;2.28;0.63;;;11.20;99.90;;;;;;5002207;28;20102;-72
2021/09/11 02:03:07;;;;;;;2.97;0.80;;;11.20;99.90;;;;;;4989373;28;20027;-72
2021/09/11 02:05:33;;;;;;;1.55;0.73;;;11.20;99.90;;;;;;5006469;28;20033;-72
2021/09/11 02:07:59;;;;;;;3.00;0.85;;;11.10;99.90;;;;;;5008624;28;20034;-72
2021/09/11 02:10:25;;;;;;;1.33;0.80;;;11.10;99.90;;;;;;5080690;28;20391;-72
2021/09/11 02:12:51;;;;;;;2.10;0.75;;;11.10;99.90;;;;;;5008561;28;20026;-72
2021/09/11 02:15:17;;;;;;;2.33;0.80;;;11.10;99.90;;;;;;5008035;28;20025;-72
2021/09/11 02:17:43;;;;;;;1.40;0.80;;;11.10;99.90;;;;;;5008554;28;20034;-72
2021/09/11 02:20:10;;;;;;;1.30;0.77;;;11.10;99.90;;;;;;5008229;28;20029;-73
2021/09/11 02:22:36;;;;;;;1.13;0.80;;;11.10;99.90;;;;;;5011294;28;20030;-73
2021/09/11 02:25:03;;;;;;;1.15;0.93;;;11.10;99.90;;;;;;5011513;28;20061;-73
2021/09/11 02:27:29;;;;;;;1.27;0.95;;;11.10;99.90;;;;;;5011339;28;20033;-74
2021/09/11 02:29:54;;;;;;;1.38;0.80;;;11.10;99.90;;;;;;5011581;28;20545;-73
2021/09/11 02:32:20;;;;;;;3.40;0.70;;;11.10;99.90;;;;;;5011439;28;20030;-74
2021/09/11 02:34:46;;;;;;;0.85;0.65;;;11.10;99.90;;;;;;5006037;28;20032;-73
2021/09/11 02:37:12;;;;;;;0.60;0.60;;;11.20;99.90;;;;;;5003414;28;20430;-73
2021/09/11 02:39:39;;;;;;;1.13;0.80;;;11.20;99.90;;;;;;5011235;28;20052;-74
2021/09/11 02:42:06;;;;;;;1.90;1.00;;;11.20;99.90;;;;;;5011599;28;20458;-74
2021/09/11 02:44:32;;;;;;;2.03;0.60;;;11.20;99.90;;;;;;5010955;28;20022;-73
2021/09/11 02:46:58;;;;;;;0.88;0.80;;;11.20;99.90;;;;;;5011461;28;20033;-74
2021/09/11 02:49:23;;;;;;;1.23;0.75;;;11.20;99.90;;;;;;5011399;28;20489;-73
2021/09/11 02:51:49;;;;;;;0.88;0.80;;;11.20;99.90;;;;;;5011354;28;20476;-73
2021/09/11 02:54:15;;;;;;;0.70;0.70;;;11.20;99.90;;;;;;5010989;28;20061;-73
2021/09/11 02:56:40;;;;;;;1.63;0.77;;;11.20;99.90;;;;;;5010922;28;20041;-73
2021/09/11 02:59:06;;;;;;;3.85;0.80;;;11.20;99.90;;;;;;5011117;28;20051;-73
2021/09/11 03:01:32;;;;;;;3.70;0.65;;;11.20;99.90;;;;;;5010884;28;20030;-73
2021/09/11 03:03:57;;;;;;;1.88;0.85;;;11.20;99.90;;;;;;5011446;28;20523;-72
2021/09/11 03:06:23;;;;;;;3.25;1.30;;;11.20;99.90;;;;;;5010755;28;20481;-72
2021/09/11 03:08:49;;;;;;;0.90;0.80;;;11.10;99.90;;;;;;5022646;28;20050;-70
2021/09/11 03:11:14;;;;;;;0.70;0.70;;;11.10;99.90;;;;;;5071643;28;20050;-70
2021/09/11 03:13:42;;;;;;;1.80;0.70;;;11.10;99.90;;;;;;5010841;28;20057;-70
2021/09/11 03:16:09;;;;;;;0.65;0.65;;;11.10;99.90;;;;;;5010647;28;20087;-70
2021/09/11 03:18:34;;;;;;;1.48;0.77;;;11.10;99.90;;;;;;5010527;28;20033;-70
2021/09/11 03:21:00;;;;;;;3.42;0.90;;;11.10;99.90;;;;;;5010897;28;20026;-70
2021/09/11 03:23:26;;;;;;;1.42;0.98;;;11.20;99.90;;;;;;5010917;28;20377;-70
2021/09/11 03:25:52;;;;;;;1.02;0.93;;;11.20;99.90;;;;;;5010573;28;20022;-70
2021/09/11 03:28:18;;;;;;;3.33;0.80;;;11.20;99.90;;;;;;5010731;28;20117;-70
2021/09/11 03:30:43;;;;;;;0.73;0.70;;;11.10;99.90;;;;;;5010663;28;20083;-71
2021/09/11 03:33:09;;;;;;;0.80;0.80;;;11.00;99.90;;;;;;5003178;28;20030;-71
2021/09/11 03:35:35;;;;;;;4.00;0.80;;;11.00;99.90;;;;;;4991070;28;20030;-71
2021/09/11 03:38:01;;;;;;;1.55;0.90;;;10.90;99.90;;;;;;4995710;28;20026;-71
2021/09/11 03:40:27;;;;;;;0.82;0.80;;;10.90;99.90;;;;;;5010216;28;20151;-71
2021/09/11 03:42:52;;;;;;;1.35;0.80;;;11.00;99.90;;;;;;5010592;28;20036;-71
2021/09/11 03:45:18;;;;;;;1.88;1.00;;;11.00;99.90;;;;;;5010184;28;20083;-71
2021/09/11 03:47:44;;;;;;;0.80;0.80;;;11.10;99.90;;;;;;5010199;28;20531;-71
2021/09/11 03:50:10;;;;;;;0.95;0.80;;;11.10;99.90;;;;;;5010410;28;20030;-70
2021/09/11 03:52:36;;;;;;;1.83;0.65;;;11.10;99.90;;;;;;5010503;28;20472;-71
2021/09/11 03:55:03;;;;;;;3.75;0.75;;;11.10;99.90;;;;;;5009969;28;20042;-71
2021/09/11 03:57:29;;;;;;;1.48;0.73;;;11.10;99.90;;;;;;5010300;28;20037;-71
2021/09/11 03:59:55;;;;;;;1.08;0.85;;;11.10;99.90;;;;;;5009989;28;20018;-71
2021/09/11 04:02:20;;;;;;;2.55;1.10;;;11.10;99.90;;;;;;5010183;28;20029;-72
2021/09/11 04:04:46;;;;;;;1.20;1.10;;;11.10;99.90;;;;;;5009968;28;20479;-71
2021/09/11 04:07:12;;;;;;;2.92;0.98;;;11.20;99.90;;;;;;5010146;28;20022;-70
2021/09/11 04:09:38;;;;;;;1.27;0.88;;;11.10;99.90;;;;;;5056439;28;20493;-70
2021/09/11 04:12:04;;;;;;;1.27;0.85;;;11.10;99.90;;;;;;5035520;28;20032;-70
2021/09/11 04:14:30;;;;;;;1.23;1.13;;;11.00;99.90;;;;;;5009723;28;20047;-70
2021/09/11 04:16:55;;;;;;;1.85;1.08;;;11.00;99.90;;;;;;5010102;28;20038;-70
2021/09/11 04:19:21;;;;;;;4.13;1.30;;;11.00;99.90;;;;;;5009683;28;20116;-71
2021/09/11 04:21:47;;;;;;;1.38;1.20;;;11.10;99.90;;;;;;5010212;28;20051;-70
2021/09/11 04:24:13;;;;;;;1.65;1.05;;;11.10;99.90;;;;;;5009945;28;20091;-71
2021/09/11 04:26:38;;;;;;;1.67;1.15;;;11.10;99.90;;;;;;5009671;28;20041;-71
2021/09/11 04:29:05;;;;;;;1.10;1.00;;;11.10;99.90;;;;;;4994659;28;20060;-70
2021/09/11 04:31:31;;;;;;;3.22;2.25;;;11.10;99.90;;;;;;5009561;28;20071;-70
2021/09/11 04:33:57;;;;;;;1.73;1.00;;;11.10;99.90;;;;;;5009730;28;20711;-68
2021/09/11 04:36:23;;;;;;;0.85;0.85;;;11.10;99.90;;;;;;5004249;28;20050;-68
2021/09/11 04:38:48;;;;;;;1.77;1.40;;;11.10;99.90;;;;;;5000897;28;20022;-68
2021/09/11 04:41:14;;;;;;;2.65;0.63;;;11.20;99.90;;;;;;5009637;28;20029;-68
2021/09/11 04:43:40;;;;;;;1.35;1.00;;;11.60;99.90;;;;;;5009140;28;20048;-71
2021/09/11 04:46:06;;;;;;;2.55;1.00;;;12.20;99.90;;;;;;5008028;28;20030;-70
2021/09/11 04:48:33;;;;;;;1.08;0.88;;;12.00;99.90;;;;;;5009483;28;20104;-70
2021/09/11 04:50:59;;;;;;;1.63;0.75;;;11.80;99.90;;;;;;5002913;28;20039;-70
2021/09/11 04:53:25;;;;;;;3.03;0.85;;;11.60;99.90;;;;;;5072580;28;20517;-70
2021/09/11 04:55:50;;;;;;;3.22;0.90;;;11.50;99.90;;;;;;5054342;28;20072;-70
2021/09/11 04:58:16;;;;;;;0.73;0.60;;;11.40;99.90;;;;;;5063338;28;20051;-72
2021/09/11 05:00:42;;;;;;;0.85;0.80;;;11.90;99.90;;;;;;5064486;28;20161;-71
2021/09/11 05:03:08;;;;;;;0.70;0.70;;;12.60;99.90;;;;;;5044780;28;20033;-70
2021/09/11 05:05:34;;;;;;;1.33;0.80;;;13.00;99.90;;;;;;5040036;28;20020;-72
2021/09/11 05:08:00;;;;;;;1.77;0.70;;;13.30;99.90;;;;;;5045774;28;20037;-68
2021/09/11 05:10:27;;;;;;;0.70;0.70;;;13.30;99.90;;;;;;5101739;28;20028;-69
2021/09/11 05:12:53;;;;;;;0.85;0.73;;;12.80;99.90;;;;;;5009162;28;20037;-67
2021/09/11 05:15:20;;;;;;;2.63;0.73;;;12.60;99.90;;;;;;5009838;28;20045;-67
2021/09/11 05:17:45;;;;;;;2.13;0.70;;;12.80;99.90;;;;;;5009131;28;20053;-67
2021/09/11 05:20:12;;;;;;;1.45;0.60;;;13.00;99.90;;;;;;5008941;28;20538;-67
2021/09/11 05:22:39;;;;;;;1.58;0.77;;;13.10;99.90;;;;;;5008619;28;20030;-67
2021/09/11 05:25:06;;;;;;;0.70;0.70;;;13.20;99.90;;;;;;5008860;28;20465;-67
2021/09/11 05:27:32;;;;;;;0.80;0.80;;;13.10;99.90;;;;;;5006642;28;20030;-67
2021/09/11 05:29:58;;;;;;;0.85;0.85;;;12.70;99.90;;;;;;4989477;28;20481;-67
2021/09/11 05:32:23;;;;;;;3.28;0.80;;;12.60;99.90;;;;;;5003242;28;20034;-67
2021/09/11 05:34:49;;;;;;;0.90;0.82;;;12.60;99.90;;;;;;5008695;28;20450;-67
2021/09/11 05:37:15;;;;;;;0.90;0.85;;;12.60;99.90;;;;;;5008669;28;20045;-68
2021/09/11 05:39:41;;;;;;;0.90;0.85;;;12.40;99.90;;;;;;5008621;28;20105;-67
2021/09/11 05:42:07;;;;;;;0.93;0.85;;;12.30;99.90;;;;;;5009044;28;20083;-67
2021/09/11 05:44:34;;;;;;;1.20;1.05;;;12.20;99.90;;;;;;5008944;28;20100;-67
2021/09/11 05:47:00;;;;;;;1.42;0.90;;;12.10;99.90;;;;;;5008708;28;20026;-67
2021/09/11 05:49:26;;;;;;;1.55;0.80;;;12.00;99.90;;;;;;5008386;28;20105;-67
2021/09/11 05:51:52;;;;;;;1.38;0.82;;;11.90;99.90;;;;;;5008548;28;20435;-68
2021/09/11 05:54:19;;;;;;;1.52;1.10;;;11.90;99.90;;;;;;5007112;28;20057;-67
2021/09/11 05:56:44;;;;;;;1.90;1.02;;;11.80;99.90;;;;;;5010353;28;20045;-67
2021/09/11 05:59:10;;;;;;;1.85;1.00;;;11.80;99.90;;;;;;5012203;28;20104;-67
2021/09/11 06:01:36;;;;;;;0.98;0.88;;;11.70;99.90;;;;;;5011988;28;20470;-68
2021/09/11 06:04:02;;;;;;;2.15;1.17;;;11.70;99.90;;;;;;5010845;28;20022;-68
2021/09/11 06:06:28;;;;;;;2.15;1.13;;;11.70;99.90;;;;;;5011565;28;20026;-69
2021/09/11 06:08:54;;;;;;;4.60;1.23;;;11.70;99.90;;;;;;5026838;28;20399;-72
2021/09/11 06:11:20;;;;;;;1.70;1.15;;;11.70;99.90;;;;;;5069053;28;20033;-72
2021/09/11 06:13:46;;;;;;;4.35;1.40;;;11.70;99.90;;;;;;5011807;28;20377;-73
2021/09/11 06:16:12;;;;;;;1.90;1.33;;;11.70;99.90;;;;;;5011541;28;20022;-68
2021/09/11 06:18:38;;;;;;;1.95;1.48;;;11.60;99.90;;;;;;5011917;28;20022;-68
2021/09/11 06:21:04;;;;;;;1.85;1.35;;;11.60;99.90;;;;;;5011836;28;20022;-68
2021/09/11 06:23:29;;;;;;;5.60;1.27;;;11.60;99.90;;;;;;5011789;28;20022;-73
2021/09/11 06:25:55;;;;;;;1.50;1.17;;;11.80;99.90;;;;;;4994774;28;20044;-67
2021/09/11 06:28:24;;;;;;;2.00;1.23;;;12.60;99.90;;;;;;4991947;28;20038;-67
2021/09/11 06:30:50;;;;;;;1.30;1.20;;;12.40;99.90;;;;;;4991737;28;20727;-67
2021/09/11 06:33:16;;;;;;;1.77;1.30;;;12.10;99.90;;;;;;4999126;28;20022;-67
2021/09/11 06:35:42;;;;;;;2.00;1.40;;;12.00;99.90;;;;;;5011226;28;20117;-67
2021/09/11 06:38:08;;;;;;;4.22;1.30;;;11.90;99.90;;;;;;5011569;28;20106;-67
2021/09/11 06:40:33;;;;;;;3.72;1.33;;;11.80;99.90;;;;;;5011257;28;20014;-67
2021/09/11 06:42:59;;;;;;;2.40;1.30;;;11.70;99.90;;;;;;5011250;28;20022;-67
2021/09/11 06:45:25;;;;;;;5.13;1.45;;;11.70;99.90;;;;;;5011130;28;20029;-67
2021/09/11 06:47:50;;;;;;;1.88;1.27;;;11.60;99.90;;;;;;5011278;28;20082;-67
2021/09/11 06:50:16;;;;;;;3.00;0.90;;;11.60;99.90;;;;;;5011263;28;20362;-72
2021/09/11 06:52:42;;;;;;;2.40;1.30;;;11.70;99.90;;;;;;5011231;28;20473;-67
2021/09/11 06:55:09;;;;;;;2.75;1.35;;;12.70;99.90;;;;;;5010771;28;20478;-69
2021/09/11 06:57:35;;;;;;;1.85;1.23;;;12.60;99.90;;;;;;5010889;28;20038;-69
2021/09/11 07:00:00;;;;;;;1.50;1.40;;;12.30;99.90;;;;;;5010974;28;20024;-69
2021/09/11 07:02:26;;;;;;;1.55;1.42;;;12.10;99.90;;;;;;5010952;28;20029;-69
2021/09/11 07:04:52;;;;;;;6.28;1.60;;;11.90;99.90;;;;;;5011005;28;20021;-67
2021/09/11 07:07:18;;;;;;;3.22;1.40;;;11.80;99.90;;;;;;5040774;28;20024;-68
2021/09/11 07:09:43;;;;;;;1.88;1.13;;;11.70;99.90;;;;;;5086574;28;20147;-66
2021/09/11 07:12:09;;;;;;;1.73;1.27;;;11.70;99.90;;;;;;5033180;28;20066;-66
2021/09/11 07:14:35;;;;;;;2.28;1.20;;;11.60;99.90;;;;;;5010685;28;20367;-71
2021/09/11 07:17:00;;;;;;;3.58;0.90;;;11.60;99.90;;;;;;5010709;28;20083;-67
2021/09/11 07:19:28;;;;;;;2.17;1.10;;;12.10;99.90;;;;;;5005065;28;20022;-66
2021/09/11 07:21:55;;;;;;;1.45;1.10;;;13.10;99.90;;;;;;5003196;28;20033;-67
2021/09/11 07:24:22;;;;;;;22.60;2.20;;;12.90;99.90;;;;;;4992892;28;20041;-66
2021/09/11 07:26:47;;;;;;;2.95;1.13;;;12.60;99.90;;;;;;4991035;28;20028;-66
2021/09/11 07:29:13;;;;;;;6.80;1.25;;;12.20;99.90;;;;;;4993172;28;20015;-70
2021/09/11 07:31:39;;;;;;;1.38;0.90;;;12.00;99.90;;;;;;5004121;28;20452;-69
2021/09/11 07:34:05;;;;;;;1.17;0.90;;;12.00;99.90;;;;;;5017018;28;20507;-69
2021/09/11 07:36:30;;;;;;;2.35;1.20;;;12.00;99.90;;;;;;5031766;28;20038;-69
2021/09/11 07:38:56;;;;;;;3.00;1.02;;;11.80;99.90;;;;;;5013273;28;20390;-70
2021/09/11 07:41:22;;;;;;;1.65;1.10;;;11.80;99.90;;;;;;5049940;28;20020;-69
2021/09/11 07:43:48;;;;;;;1.95;1.20;;;11.80;99.90;;;;;;5108681;28;20023;-70
2021/09/11 07:46:13;;;;;;;3.00;1.08;;;11.70;99.90;;;;;;5070950;28;20026;-69
2021/09/11 07:48:39;;;;;;;3.58;1.10;;;11.70;99.90;;;;;;5094023;28;20020;-70
2021/09/11 07:51:05;;;;;;;1.95;1.10;;;11.70;99.90;;;;;;5006725;28;20470;-70
2021/09/11 07:53:30;;;;;;;1.80;0.98;;;11.70;99.90;;;;;;5051446;27;20028;-68
2021/09/11 07:55:56;;;;;;;2.58;1.23;;;11.70;99.90;;;;;;5006156;28;20022;-68
2021/09/11 07:58:22;;;;;;;2.08;1.40;;;11.70;99.90;;;;;;5051014;28;20026;-68
2021/09/11 08:00:47;;;;;;;1.73;1.33;;;11.70;99.90;;;;;;5031070;28;20029;-68
2021/09/11 08:03:13;;;;;;;3.25;1.10;;;11.70;99.90;;;;;;5041666;28;20087;-68
2021/09/11 08:05:39;;;;;;;2.03;1.25;;;11.70;99.90;;;;;;5041010;28;20026;-68
2021/09/11 08:08:05;;;;;;;3.88;1.50;;;11.70;99.90;;;;;;5031240;28;20071;-70
2021/09/11 08:10:31;;;;;;;2.45;1.38;;;11.60;99.90;;;;;;5102337;28;20035;-70
2021/09/11 08:12:56;;;;;;;2.88;1.70;;;11.60;99.90;;;;;;5009932;28;20030;-71
2021/09/11 08:15:22;;;;;;;3.40;1.63;;;11.50;99.90;;;;;;4995893;28;20027;-71
2021/09/11 08:17:48;;;;;;;4.90;1.90;;;11.60;99.90;;;;;;4990487;28;20240;-68
2021/09/11 08:20:14;;;;;;;4.70;1.67;;;11.60;99.90;;;;;;4989757;28;20473;-69
2021/09/11 08:22:41;;;;;;;3.25;1.80;;;11.60;99.90;;;;;;5028083;28;20070;-67
2021/09/11 08:25:08;;;;;;;4.00;1.48;;;11.60;99.90;;;;;;5092851;28;20528;-67
2021/09/11 08:27:33;;;;;;;4.93;2.30;;;11.60;99.90;;;;;;5075419;28;20022;-68
2021/09/11 08:29:59;;;;;;;5.25;1.95;;;11.50;99.90;;;;;;5041067;28;20537;-68
2021/09/11 08:32:25;;;;;;;4.63;2.28;;;11.50;99.90;;;;;;5063465;28;20113;-67
2021/09/11 08:34:52;;;;;;;2.40;2.20;;;11.50;99.90;;;;;;5093072;28;20023;-69
2021/09/11 08:37:19;;;;;;;2.92;2.30;;;11.40;99.90;;;;;;5080527;28;20047;-68
2021/09/11 08:39:45;;;;;;;5.13;2.53;;;11.50;99.90;;;;;;5087219;28;20476;-67
2021/09/11 08:42:11;;;;;;;3.42;2.58;;;11.60;99.90;;;;;;5090062;28;20035;-67
2021/09/11 08:44:37;;;;;;;4.05;2.90;;;11.60;99.90;;;;;;5077679;28;20431;-67
2021/09/11 08:47:06;;;;;;;4.88;2.40;;;11.60;99.90;;;;;;5093168;28;20028;-67
2021/09/11 08:49:31;;;;;;;3.20;2.55;;;11.60;99.90;;;;;;5073626;28;20443;-67
2021/09/11 08:51:57;;;;;;;5.95;2.60;;;11.50;99.90;;;;;;5093060;28;20055;-67
2021/09/11 08:54:23;;;;;;;5.15;2.72;;;11.60;99.90;;;;;;5076889;28;20050;-67
2021/09/11 08:56:51;;;;;;;5.43;2.20;;;11.50;99.90;;;;;;5089848;28;20057;-67
2021/09/11 08:59:18;;;;;;;3.75;2.60;;;11.50;99.90;;;;;;5086103;28;20020;-70
2021/09/11 09:02:06;;;;;;;3.20;2.33;;;11.60;99.90;;;;;;5082222;28;20039;-70
2021/09/11 09:04:45;;;;;;;3.15;2.33;;;11.60;99.90;;;;;;5079474;28;20024;-67
2021/09/11 09:07:11;;;;;;;4.47;2.45;;;11.60;99.90;;;;;;5032881;28;20016;-68
2021/09/11 09:09:41;;;;;;;3.20;2.40;;;11.60;99.90;;;;;;5092951;28;20102;-67
2021/09/11 09:12:14;;;;;;;5.93;2.78;;;11.60;99.90;;;;;;5032714;28;20036;-67
2021/09/11 09:14:56;;;;;;;4.50;2.25;;;11.60;99.90;;;;;;5002841;28;20031;-70
2021/09/11 09:17:47;;;;;;;3.33;2.42;;;11.60;99.90;;;;;;4988645;28;20040;-69
2021/09/11 09:20:21;;;;;;;3.45;2.70;;;11.60;99.90;;;;;;4990007;28;20551;-69
2021/09/11 09:23:07;;;;;;;4.70;3.05;;;11.60;99.90;;;;;;4989844;28;20034;-69
2021/09/11 09:25:37;;;;;;;3.60;2.95;;;11.60;99.90;;;;;;4990494;28;20023;-69
2021/09/11 09:28:07;;;;;;;3.88;3.15;;;11.60;99.90;;;;;;5029734;28;20542;-69
2021/09/11 09:30:41;;;;;;;5.40;3.27;;;11.50;99.90;;;;;;5107706;28;20035;-69
2021/09/11 09:33:09;;;;;;;5.78;3.17;;;11.50;99.90;;;;;;5109072;28;20618;-71
2021/09/11 09:35:35;;;;;;;5.43;2.72;;;11.50;99.90;;;;;;5108778;28;20034;-70
2021/09/11 09:38:07;;;;;;;2.97;2.63;;;11.50;99.90;;;;;;5024094;28;20032;-80
2021/09/11 09:40:35;;;;;;;3.17;2.05;;;11.50;99.90;;;;;;5105303;28;20498;-70
2021/09/11 09:43:02;;;;;;;3.22;2.30;;;12.20;99.90;;;;;;5073574;28;20054;-68
2021/09/11 09:45:30;;;;;;;2.90;2.30;;;12.20;99.90;;;;;;4990237;28;20030;-68
2021/09/11 09:48:07;;;;;;;4.30;2.35;;;12.00;99.90;;;;;;4989827;28;20018;-67
2021/09/11 09:50:42;;;;;;;3.00;2.50;;;11.90;99.90;;;;;;4988874;28;20023;-68
2021/09/11 09:53:09;;;;;;;3.75;2.72;;;11.70;99.90;;;;;;4989767;28;20410;-70
2021/09/11 09:55:42;;;;;;;4.05;2.35;;;11.60;99.90;;;;;;4988966;28;20038;-67
2021/09/11 09:58:08;;;;;;;2.80;2.40;;;11.60;99.90;;;;;;5003741;28;20030;-67
2021/09/11 10:00:34;;;;;;;4.35;2.47;;;11.60;99.90;;;;;;5052519;28;20465;-67
2021/09/11 10:03:00;;;;;;;2.95;2.65;;;11.50;99.90;;;;;;4987272;28;20070;-67
2021/09/11 10:05:31;;;;;;;2.50;2.30;;;11.50;99.90;;;;;;4989082;28;20055;-67
2021/09/11 10:08:17;;;;;;;2.95;2.40;;;11.50;99.90;;;;;;4988618;28;20134;-67
2021/09/11 10:10:48;;;;;;;2.75;2.40;;;11.50;99.90;;;;;;4988541;28;20022;-67
2021/09/11 10:13:19;;;;;;;2.08;1.85;;;11.50;99.90;;;;;;4988703;28;20517;-67
2021/09/11 10:15:51;;;;;;;1.80;1.67;;;11.50;99.90;;;;;;5005410;28;20033;-67
2021/09/11 10:18:38;;;;;;;1.80;1.52;;;11.50;99.90;;;;;;4998358;28;20033;-67
2021/09/11 10:21:17;;;;;;;1.70;1.60;;;11.60;99.90;;;;;;5007325;28;20393;-67
2021/09/11 10:24:03;;;;;;;2.17;1.65;;;11.50;99.90;;;;;;5074598;28;20027;-67
2021/09/11 10:26:51;;;;;;;2.20;1.75;;;11.50;99.90;;;;;;5011830;28;20046;-67
2021/09/11 10:29:32;;;;;;;1.70;1.60;;;11.50;99.90;;;;;;5074821;28;20043;-67
2021/09/11 10:32:08;;;;;;;2.67;1.90;;;11.50;99.90;;;;;;4998913;28;20026;-67
2021/09/11 10:34:53;;;;;;;2.97;1.45;;;11.50;99.90;;;;;;5007922;28;20049;-67
2021/09/11 10:37:39;;;;;;;2.50;1.67;;;11.50;99.90;;;;;;5074077;28;20046;-67
2021/09/11 10:40:28;;;;;;;2.22;1.60;;;11.50;99.90;;;;;;5072208;28;20147;-70
2021/09/11 10:43:13;;;;;;;3.63;1.73;;;11.50;99.90;;;;;;5009815;28;20327;-70
2021/09/11 10:49:48;;;;;;;2.08;1.38;;;11.70;99.90;;;;;;4991366;28;20046;-70
2021/09/11 10:52:55;;;;;;;2.85;1.70;;;12.70;99.90;;;;;;4991496;28;20469;-70
2021/09/11 10:55:49;;;;;;;4.43;2.00;;;12.30;99.90;;;;;;4991559;28;20091;-70
2021/09/11 10:58:53;;;;;;;2.38;1.73;;;12.00;99.90;;;;;;4993812;28;20477;-70
2021/09/11 11:02:22;;;;;;;1.80;1.55;;;11.80;99.90;;;;;;5011140;28;20026;-70
2021/09/11 11:05:20;;;;;;;2.08;1.85;;;11.70;99.90;;;;;;5016160;28;20030;-69
2021/09/11 11:07:48;;;;;;;2.33;1.73;;;11.70;99.90;;;;;;5012334;28;20049;-70
2021/09/11 11:10:17;;;;;;;2.45;1.70;;;11.70;99.90;;;;;;5017995;28;20035;-70
2021/09/11 11:12:45;;;;;;;2.53;1.97;;;11.70;99.90;;;;;;4997374;28;20110;-70
2021/09/11 11:15:14;;;;;;;1.95;1.85;;;11.70;99.90;;;;;;5010944;28;20026;-70
2021/09/11 11:17:45;;;;;;;3.63;1.60;;;11.80;99.90;;;;;;5010838;28;20034;-70
2021/09/11 11:20:12;;;;;;;6.20;1.65;;;11.80;99.90;;;;;;5010803;28;20022;-70
2021/09/11 11:22:40;;;;;;;2.08;1.70;;;11.90;99.90;;;;;;5011011;28;20334;-70
2021/09/11 11:25:12;;;;;;;2.05;1.67;;;11.90;99.90;;;;;;5010950;28;20022;-70
2021/09/11 11:27:39;;;;;;;2.72;1.77;;;11.90;99.90;;;;;;5010754;28;20022;-70
2021/09/11 11:30:08;;;;;;;2.95;1.65;;;11.90;99.90;;;;;;5010446;28;20026;-70
2021/09/11 11:32:38;;;;;;;4.85;1.90;;;11.80;99.90;;;;;;5010581;28;20030;-70
2021/09/11 11:35:06;;;;;;;2.10;1.90;;;11.90;99.90;;;;;;5010507;28;20061;-71
2021/09/11 11:37:38;;;;;;;1.98;1.50;;;12.00;99.90;;;;;;5010386;28;20570;-71
2021/09/11 11:40:08;;;;;;;2.25;1.65;;;12.00;99.90;;;;;;5010479;28;20072;-71
2021/09/11 11:42:34;;;;;;;1.60;1.50;;;12.00;99.90;;;;;;5010668;28;20429;-71
2021/09/11 11:45:03;;;;;;;3.70;1.80;;;12.00;99.90;;;;;;4996578;28;20366;-71
2021/09/11 11:47:34;;;;;;;1.92;1.48;;;12.00;99.90;;;;;;5010301;28;20034;-71
2021/09/11 11:50:00;;;;;;;4.60;1.45;;;12.00;99.90;;;;;;5009893;28;20041;-71
2021/09/11 11:52:30;;;;;;;1.75;1.55;;;12.00;99.90;;;;;;5010241;28;20055;-71
2021/09/11 11:54:56;;;;;;;2.75;1.38;;;12.00;99.90;;;;;;5009590;28;20057;-71
2021/09/11 11:57:23;;;;;;;2.35;1.80;;;12.00;99.90;;;;;;5010152;28;20042;-71
2021/09/11 12:00:00;;;;;;;2.83;1.75;;;12.00;99.90;;;;;;5010725;28;20547;-71
2021/09/11 12:02:33;;;;;;;2.35;1.50;;;12.00;99.90;;;;;;4993361;28;20033;-71
2021/09/11 12:05:17;;;;;;;3.35;1.67;;;12.10;99.90;;;;;;5001068;28;20417;-68
2021/09/11 12:07:57;;;;;;;2.35;1.60;;;12.10;99.90;;;;;;4997209;28;20159;-68
2021/09/11 12:10:25;;;;;;;2.13;1.40;;;12.10;99.90;;;;;;4995840;28;20036;-68
2021/09/11 12:12:56;;;;;;;1.90;1.48;;;12.10;99.90;;;;;;4996284;28;20586;-68
2021/09/11 12:15:27;;;;;;;2.22;1.77;;;12.10;99.90;;;;;;4994841;28;20504;-68
2021/09/11 12:18:14;;;;;;;2.25;1.63;;;12.00;99.90;;;;;;5037479;28;20039;-69
2021/09/11 12:21:06;;;;;;;2.03;1.75;;;12.10;99.90;;;;;;5044249;28;20052;-69
2021/09/11 12:23:33;;;;;;;2.15;1.85;;;12.00;99.90;;;;;;5042990;28;20022;-69
2021/09/11 12:26:08;;;;;;;4.32;2.00;;;12.00;99.90;;;;;;5060719;28;20055;-69
2021/09/11 12:28:35;;;;;;;3.25;1.70;;;12.00;99.90;;;;;;5051788;28;20477;-69
2021/09/11 12:31:01;;;;;;;3.47;2.05;;;12.00;99.90;;;;;;5018590;28;20039;-69
2021/09/11 12:33:27;;;;;;;2.30;1.90;;;12.00;99.90;;;;;;5020502;28;20029;-68
2021/09/11 12:35:53;;;;;;;3.42;2.25;;;12.00;99.90;;;;;;5006404;28;20029;-68
2021/09/11 12:38:19;;;;;;;2.50;1.88;;;12.00;99.90;;;;;;4992591;28;20022;-69
2021/09/11 12:40:45;;;;;;;5.15;2.30;;;11.90;99.90;;;;;;5003790;28;20034;-69
2021/09/11 12:43:11;;;;;;;5.10;1.85;;;12.00;99.90;;;;;;5021801;28;20119;-69
2021/09/11 12:45:40;;;;;;;3.55;2.20;;;12.00;99.90;;;;;;5001547;28;20026;-69
2021/09/11 12:48:06;;;;;;;4.28;2.10;;;11.90;99.90;;;;;;5011916;28;20058;-69
2021/09/11 12:50:32;;;;;;;2.25;2.05;;;12.00;99.90;;;;;;4996125;28;20046;-69
2021/09/11 12:52:57;;;;;;;4.07;2.10;;;12.00;99.90;;;;;;4997235;28;20525;-69
2021/09/11 12:55:24;;;;;;;2.40;1.90;;;12.00;99.90;;;;;;4993578;28;20030;-69
2021/09/11 12:57:50;;;;;;;2.95;2.00;;;12.00;99.90;;;;;;4994352;28;20045;-69
2021/09/11 13:00:16;;;;;;;5.35;1.90;;;12.00;99.90;;;;;;5020671;28;20022;-69
2021/09/11 13:02:41;;;;;;;2.30;2.10;;;12.00;99.90;;;;;;5003555;28;20413;-69
2021/09/11 13:05:08;;;;;;;5.13;2.50;;;12.00;99.90;;;;;;5007225;28;20039;-69
2021/09/11 13:07:33;;;;;;;3.03;2.20;;;12.00;99.90;;;;;;4995482;28;20075;-69
2021/09/11 13:09:59;;;;;;;3.97;2.17;;;12.00;99.90;;;;;;4998392;28;20035;-70
2021/09/11 13:12:25;;;;;;;4.20;2.10;;;12.00;99.90;;;;;;4999760;28;20022;-69
2021/09/11 13:14:50;;;;;;;2.67;1.98;;;12.00;99.90;;;;;;5003286;28;20400;-68
2021/09/11 13:17:16;;;;;;;2.25;2.05;;;11.90;99.90;;;;;;5004786;28;20117;-70
2021/09/11 13:19:42;;;;;;;3.03;1.80;;;12.00;99.90;;;;;;4992178;28;20494;-70
2021/09/11 13:22:08;;;;;;;2.47;2.25;;;12.00;99.90;;;;;;4991781;28;20030;-70
2021/09/11 13:24:33;;;;;;;5.30;2.10;;;12.00;99.90;;;;;;5008179;28;20050;-70
2021/09/11 13:27:02;;;;;;;4.28;2.30;;;12.00;99.90;;;;;;5002997;28;20026;-70